Time;durP1;ratioP1;P1;durP2;ratioP2;P2;SDS_P1;SDS_P2;PMS_P1;PMS_P2;Temp;Humidity;BMP_temperature;BMP_pressure;BME280_temperature;BME280_humidity;BME280_pressure;Samples;Min_cycle;Max_cycle;Signal;HPM_P1;HPM_P2
2023/12/17 00:00:15;;;;;;;;;106.50;84.75;;;;;1.41;55.86;101750.50;5048398;28;10515;-76
2023/12/17 00:03:05;;;;;;;;;100.00;82.25;;;;;1.44;55.38;101754.94;5023442;28;10315;-74
2023/12/17 00:05:48;;;;;;;;;107.00;84.75;;;;;1.45;55.05;101748.97;5051212;28;10059;-75
2023/12/17 00:08:19;;;;;;;;;101.75;80.00;;;;;1.32;55.66;101751.72;5020085;28;10085;-74
2023/12/17 00:10:50;;;;;;;;;95.00;74.00;;;;;1.28;55.58;101755.84;5011910;28;10422;-74
2023/12/17 00:13:20;;;;;;;;;101.25;87.00;;;;;1.24;55.86;101741.84;5010970;28;10877;-72
2023/12/17 00:15:49;;;;;;;;;94.75;72.75;;;;;1.23;56.11;101755.59;4960923;28;10092;-75
2023/12/17 00:18:18;;;;;;;;;96.50;76.50;;;;;1.21;56.23;101754.63;5042155;28;10080;-75
2023/12/17 00:20:47;;;;;;;;;101.75;83.25;;;;;1.20;55.68;101758.03;5010617;28;9918;-73
2023/12/17 00:23:17;;;;;;;;;97.25;79.50;;;;;1.24;55.76;101751.34;5012422;28;9964;-74
2023/12/17 00:25:45;;;;;;;;;93.50;75.00;;;;;1.27;55.45;101766.13;5027614;28;9816;-76
2023/12/17 00:28:15;;;;;;;;;101.25;82.00;;;;;1.18;55.92;101772.63;5029067;28;9728;-75
2023/12/17 00:30:45;;;;;;;;;93.25;74.25;;;;;1.21;56.02;101774.47;5030669;28;9879;-73
2023/12/17 00:33:14;;;;;;;;;98.75;77.50;;;;;1.20;56.00;101776.19;4994243;28;9579;-74
2023/12/17 00:35:44;;;;;;;;;97.50;73.75;;;;;1.23;55.90;101778.91;4975825;28;9617;-74
2023/12/17 00:38:13;;;;;;;;;99.00;79.00;;;;;1.24;55.73;101785.88;5041972;28;9744;-74
2023/12/17 00:40:42;;;;;;;;;99.75;76.25;;;;;1.23;55.84;101788.41;5022932;28;9732;-74
2023/12/17 00:43:11;;;;;;;;;101.75;85.50;;;;;1.23;55.78;101790.97;5029854;28;10054;-73
2023/12/17 00:45:40;;;;;;;;;92.75;74.25;;;;;1.26;55.59;101793.75;5028861;28;10056;-74
2023/12/17 00:48:11;;;;;;;;;97.75;74.50;;;;;1.24;55.53;101796.25;5029699;28;9908;-74
2023/12/17 00:50:40;;;;;;;;;95.25;77.00;;;;;1.24;55.88;101793.66;5029782;28;9900;-74
2023/12/17 00:53:09;;;;;;;;;95.00;76.25;;;;;1.25;55.88;101795.44;5030218;28;9810;-77
2023/12/17 00:55:38;;;;;;;;;95.75;73.25;;;;;1.22;55.75;101799.59;5027508;28;9692;-75
2023/12/17 00:58:07;;;;;;;;;97.00;74.50;;;;;1.23;55.95;101801.34;5012573;28;9719;-75
2023/12/17 01:00:36;;;;;;;;;96.25;75.25;;;;;1.15;55.64;101800.94;5026457;28;9720;-74
2023/12/17 01:03:22;;;;;;;;;97.25;72.75;;;;;1.15;55.57;101803.53;5010170;28;9560;-74
2023/12/17 01:05:51;;;;;;;;;95.00;72.75;;;;;1.13;55.85;101807.75;5012241;28;9670;-74
2023/12/17 01:08:20;;;;;;;;;93.33;72.67;;;;;1.16;55.87;101801.81;5029651;28;9657;-75
2023/12/17 01:10:49;;;;;;;;;92.67;73.00;;;;;1.07;55.98;101803.91;5019352;28;9652;-73
2023/12/17 01:13:18;;;;;;;;;87.75;71.75;;;;;1.10;55.81;101801.50;5041021;28;9329;-74
2023/12/17 01:15:47;;;;;;;;;98.33;75.00;;;;;1.12;55.27;101795.56;4992523;28;9636;-76
2023/12/17 01:18:16;;;;;;;;;92.00;72.00;;;;;1.10;55.56;101799.78;5008475;28;9397;-73
2023/12/17 01:20:46;;;;;;;;;88.33;70.67;;;;;1.14;55.41;101801.72;5009536;28;9491;-74
2023/12/17 01:23:15;;;;;;;;;96.75;75.25;;;;;1.06;55.64;101792.66;4991194;28;9468;-75
2023/12/17 01:25:44;;;;;;;;;87.75;71.25;;;;;0.96;55.99;101800.75;5030954;28;9671;-74
2023/12/17 01:28:13;;;;;;;;;91.00;72.00;;;;;1.03;55.99;101808.03;5016195;28;9472;-73
2023/12/17 01:30:42;;;;;;;;;89.00;70.67;;;;;1.05;55.94;101807.31;5049543;28;9423;-74
2023/12/17 01:33:11;;;;;;;;;91.67;71.33;;;;;1.06;55.60;101803.03;5033308;28;9935;-72
2023/12/17 01:35:40;;;;;;;;;96.00;72.00;;;;;1.11;55.70;101795.53;5066101;28;9324;-74
2023/12/17 01:38:11;;;;;;;;;99.75;77.50;;;;;1.10;55.45;101797.19;5065931;28;9626;-75
2023/12/17 01:40:40;;;;;;;;;90.50;69.50;;;;;1.08;55.67;101801.41;5031690;28;9622;-74
2023/12/17 01:43:09;;;;;;;;;93.25;74.50;;;;;0.87;56.38;101793.34;5066936;28;9718;-75
2023/12/17 01:45:38;;;;;;;;;87.33;67.67;;;;;0.97;55.83;101798.25;5066408;28;9650;-74
2023/12/17 01:48:07;;;;;;;;;89.00;69.50;;;;;0.90;55.84;101798.69;5050291;28;9415;-73
2023/12/17 01:50:36;;;;;;;;;94.50;72.75;;;;;0.95;55.84;101792.06;5046652;28;9642;-75
2023/12/17 01:53:05;;;;;;;;;94.75;74.25;;;;;0.92;55.75;101791.91;5046275;28;9568;-74
2023/12/17 01:55:36;;;;;;;;;94.75;76.75;;;;;0.95;55.82;101791.16;5043287;28;9659;-74
2023/12/17 01:58:05;;;;;;;;;97.00;72.67;;;;;0.95;55.90;101786.91;5020406;28;9667;-74
2023/12/17 02:00:36;;;;;;;;;90.50;72.25;;;;;0.91;56.09;101786.63;5023707;28;9427;-73
2023/12/17 02:03:05;;;;;;;;;89.00;69.33;;;;;0.89;55.80;101790.84;5040549;28;9633;-74
2023/12/17 02:05:35;;;;;;;;;85.33;68.00;;;;;0.73;56.34;101789.09;5024133;28;9113;-73
2023/12/17 02:08:05;;;;;;;;;88.67;70.33;;;;;0.78;56.24;101788.53;5008924;28;9196;-74
2023/12/17 02:10:34;;;;;;;;;85.67;68.00;;;;;0.80;55.84;101797.31;5017481;28;9082;-74
2023/12/17 02:13:04;;;;;;;;;86.33;68.00;;;;;0.85;55.88;101794.94;5010871;28;9972;-72
2023/12/17 02:15:33;;;;;;;;;87.00;69.33;;;;;0.83;55.83;101791.38;5019034;28;9274;-74
2023/12/17 02:18:02;;;;;;;;;84.00;64.33;;;;;0.89;55.97;101790.84;5023954;28;9097;-72
2023/12/17 02:20:31;;;;;;;;;84.67;65.33;;;;;0.85;55.80;101788.06;5045426;28;9816;-76
2023/12/17 02:23:04;;;;;;;;;88.00;71.00;;;;;0.85;55.82;101784.59;5027967;28;9139;-74
2023/12/17 02:25:33;;;;;;;;;88.00;70.00;;;;;0.82;55.47;101787.91;5025307;28;9992;-75
2023/12/17 02:28:02;;;;;;;;;91.00;69.00;;;;;0.80;55.75;101780.84;5027121;28;9025;-74
2023/12/17 02:30:31;;;;;;;;;85.33;67.33;;;;;0.81;55.68;101783.53;5011030;28;9423;-74
2023/12/17 02:33:00;;;;;;;;;86.67;69.67;;;;;0.81;55.81;101778.34;5009541;28;9047;-74
2023/12/17 02:35:29;;;;;;;;;86.75;70.00;;;;;0.81;55.67;101777.47;5007002;28;8956;-77
2023/12/17 02:37:58;;;;;;;;;85.33;68.33;;;;;0.83;55.79;101771.56;5008543;28;8858;-74
2023/12/17 02:40:28;;;;;;;;;82.33;66.00;;;;;0.86;55.56;101776.91;5009973;28;9054;-74
2023/12/17 02:42:58;;;;;;;;;86.75;67.75;;;;;0.85;55.52;101776.81;5009213;28;9118;-74
2023/12/17 02:45:27;;;;;;;;;79.50;62.50;;;;;0.86;55.47;101782.09;5008739;28;8997;-76
2023/12/17 02:47:56;;;;;;;;;84.33;66.33;;;;;0.83;55.20;101781.91;5008396;28;8862;-73
2023/12/17 02:50:25;;;;;;;;;89.00;69.00;;;;;0.88;55.15;101786.44;5006282;28;8974;-74
2023/12/17 02:52:54;;;;;;;;;86.00;67.50;;;;;0.90;55.25;101785.75;5007336;28;8965;-73
2023/12/17 02:55:23;;;;;;;;;82.67;66.33;;;;;0.89;55.22;101780.47;5009949;28;9706;-77
2023/12/17 02:57:53;;;;;;;;;85.50;63.25;;;;;0.91;54.97;101787.50;5008535;28;9022;-75
2023/12/17 03:00:22;;;;;;;;;85.25;68.00;;;;;0.89;55.14;101786.53;5008214;28;8874;-74
2023/12/17 03:02:52;;;;;;;;;78.25;62.00;;;;;0.88;55.47;101782.19;4973804;28;8904;-75
2023/12/17 03:05:20;;;;;;;;;85.50;65.25;;;;;0.88;54.88;101787.38;4956541;28;8865;-73
2023/12/17 03:07:50;;;;;;;;;85.33;66.00;;;;;0.78;55.17;101777.28;4986003;28;8911;-73
2023/12/17 03:10:18;;;;;;;;;87.25;65.50;;;;;0.80;55.01;101779.19;4987103;28;8963;-75
2023/12/17 03:12:47;;;;;;;;;84.75;65.25;;;;;0.84;55.07;101778.53;5005581;28;8972;-75
2023/12/17 03:15:18;;;;;;;;;81.00;64.00;;;;;0.85;55.13;101779.41;4989006;28;8854;-75
2023/12/17 03:17:47;;;;;;;;;82.50;66.75;;;;;0.85;55.10;101771.66;4989157;28;8880;-74
2023/12/17 03:20:16;;;;;;;;;81.00;63.67;;;;;0.82;55.01;101774.97;4989298;28;8947;-75
2023/12/17 03:22:45;;;;;;;;;82.00;64.25;;;;;0.83;54.91;101775.84;4987395;28;8950;-75
2023/12/17 03:25:14;;;;;;;;;80.50;64.50;;;;;0.83;54.90;101771.56;4954581;28;8922;-73
2023/12/17 03:27:48;;;;;;;;;82.00;66.00;;;;;0.72;55.24;101771.78;5003921;28;9658;-75
2023/12/17 03:30:18;;;;;;;;;86.25;65.00;;;;;0.47;56.02;101785.94;4988917;28;8854;-74
2023/12/17 03:32:48;;;;;;;;;84.75;64.50;;;;;0.55;55.56;101788.97;4968233;28;8895;-72
2023/12/17 03:35:17;;;;;;;;;85.25;66.75;;;;;0.51;55.84;101787.00;5038917;28;8858;-74
2023/12/17 03:37:46;;;;;;;;;83.75;64.75;;;;;0.60;55.55;101782.34;4973973;28;8866;-76
2023/12/17 03:40:15;;;;;;;;;78.00;63.25;;;;;0.64;55.40;101792.94;5006817;28;9008;-75
2023/12/17 03:42:44;;;;;;;;;80.25;65.00;;;;;0.70;55.15;101783.75;5024329;28;8869;-74
2023/12/17 03:45:13;;;;;;;;;79.00;64.50;;;;;0.73;55.17;101787.41;5006753;28;8896;-75
2023/12/17 03:47:48;;;;;;;;;81.00;64.25;;;;;0.82;55.08;101779.22;5010862;28;8854;-74
2023/12/17 03:50:19;;;;;;;;;78.75;62.50;;;;;0.78;55.11;101783.34;5011174;28;8862;-74
2023/12/17 03:52:49;;;;;;;;;76.75;62.75;;;;;0.78;54.98;101780.75;5011391;28;8880;-74
2023/12/17 03:55:17;;;;;;;;;79.00;61.25;;;;;0.78;55.16;101782.47;5011296;28;8858;-74
2023/12/17 03:57:47;;;;;;;;;78.25;62.00;;;;;0.76;54.73;101786.69;5026534;28;8867;-77
2023/12/17 04:00:16;;;;;;;;;86.00;63.00;;;;;0.81;54.60;101783.53;5011027;28;8865;-77
2023/12/17 04:02:46;;;;;;;;;80.75;63.00;;;;;0.78;54.58;101785.94;5011258;28;8981;-73
2023/12/17 04:05:16;;;;;;;;;72.00;59.50;;;;;0.77;54.69;101780.72;5010846;28;8897;-75
2023/12/17 04:07:45;;;;;;;;;79.75;63.50;;;;;0.75;54.64;101782.31;5009710;28;8919;-74
2023/12/17 04:10:14;;;;;;;;;77.75;62.50;;;;;0.71;54.83;101781.25;5010781;28;8866;-73
2023/12/17 04:12:43;;;;;;;;;72.00;58.50;;;;;0.70;54.81;101787.22;5011680;28;8850;-75
2023/12/17 04:15:11;;;;;;;;;70.50;57.75;;;;;0.64;54.84;101786.91;5011447;28;8956;-75
2023/12/17 04:17:40;;;;;;;;;73.00;62.00;;;;;0.64;55.01;101792.06;5042857;28;8861;-74
2023/12/17 04:20:12;;;;;;;;;70.75;59.25;;;;;0.63;55.12;101793.78;5043174;28;8961;-74
2023/12/17 04:22:41;;;;;;;;;76.00;61.50;;;;;0.72;54.76;101801.16;5009126;28;8869;-73
2023/12/17 04:25:10;;;;;;;;;65.75;55.25;;;;;0.75;54.60;101806.50;5010842;28;8882;-76
2023/12/17 04:27:40;;;;;;;;;71.50;59.50;;;;;0.74;55.05;101806.41;5029033;28;8874;-74
2023/12/17 04:30:10;;;;;;;;;69.75;58.00;;;;;0.74;54.76;101803.81;5028291;28;8910;-74
2023/12/17 04:32:40;;;;;;;;;74.25;58.75;;;;;0.75;54.50;101796.16;5027586;28;8860;-73
2023/12/17 04:35:10;;;;;;;;;73.25;60.25;;;;;0.68;54.63;101794.03;5027733;28;8991;-74
2023/12/17 04:37:40;;;;;;;;;70.50;57.00;;;;;0.70;54.70;101792.41;4987860;28;8860;-73
2023/12/17 04:40:10;;;;;;;;;68.75;55.25;;;;;0.69;54.70;101798.41;4956156;28;8987;-72
2023/12/17 04:42:40;;;;;;;;;74.50;60.25;;;;;0.72;54.72;101798.56;4935960;28;8852;-74
2023/12/17 04:45:09;;;;;;;;;87.50;67.50;;;;;0.71;54.69;101799.38;4988372;28;8863;-74
2023/12/17 04:47:38;;;;;;;;;79.75;63.75;;;;;0.73;54.67;101790.00;4972088;28;9606;-74
2023/12/17 04:50:08;;;;;;;;;68.75;55.75;;;;;0.75;54.49;101782.31;4988222;28;8879;-73
2023/12/17 04:52:39;;;;;;;;;71.75;57.50;;;;;0.76;54.64;101779.78;4987953;28;8892;-73
2023/12/17 04:55:08;;;;;;;;;73.75;59.00;;;;;0.76;54.68;101777.19;4987884;28;8860;-74
2023/12/17 04:57:37;;;;;;;;;65.75;53.00;;;;;0.69;54.27;101781.97;4986498;28;8844;-75
2023/12/17 05:00:09;;;;;;;;;68.75;56.25;;;;;0.70;54.63;101776.00;4969509;28;8952;-74
2023/12/17 05:02:39;;;;;;;;;63.75;51.75;;;;;0.72;54.64;101772.66;4968177;28;9717;-74
2023/12/17 05:05:08;;;;;;;;;69.75;56.75;;;;;0.71;54.51;101778.66;4968422;28;8899;-74
2023/12/17 05:07:39;;;;;;;;;69.50;55.00;;;;;0.71;54.50;101775.16;4968399;28;8880;-74
2023/12/17 05:10:09;;;;;;;;;63.75;49.50;;;;;0.72;54.40;101780.44;5007878;28;8863;-74
2023/12/17 05:12:38;;;;;;;;;70.50;56.25;;;;;0.70;54.54;101786.34;5011666;28;9622;-73
2023/12/17 05:15:08;;;;;;;;;68.75;56.50;;;;;0.71;54.23;101804.56;5026866;28;8946;-74
2023/12/17 05:17:37;;;;;;;;;70.00;56.75;;;;;0.72;54.33;101808.91;5026946;28;9607;-76
2023/12/17 05:20:09;;;;;;;;;69.25;53.75;;;;;0.74;54.33;101802.13;5026912;28;8869;-74
2023/12/17 05:22:39;;;;;;;;;69.00;55.50;;;;;0.65;54.22;101801.59;5010589;28;8918;-73
2023/12/17 05:25:09;;;;;;;;;71.50;57.75;;;;;0.63;54.39;101803.22;5021093;28;8888;-74
2023/12/17 05:27:41;;;;;;;;;80.25;63.50;;;;;0.69;54.35;101802.66;5025096;28;8853;-75
2023/12/17 05:30:10;;;;;;;;;72.50;58.00;;;;;0.68;54.34;101803.50;5026031;28;9637;-74
2023/12/17 05:32:40;;;;;;;;;61.00;52.25;;;;;0.66;54.09;101812.03;4991051;28;8909;-75
2023/12/17 05:35:10;;;;;;;;;67.00;55.75;;;;;0.65;54.42;101812.88;5009172;28;8876;-74
2023/12/17 05:37:40;;;;;;;;;63.50;51.75;;;;;0.70;54.26;101802.75;5009430;28;8846;-72
2023/12/17 05:40:10;;;;;;;;;52.50;48.25;;;;;0.71;54.03;101801.06;5045863;28;8938;-73
2023/12/17 05:42:39;;;;;;;;;61.75;49.50;;;;;0.70;54.06;101807.06;5015050;28;8879;-76
2023/12/17 05:45:09;;;;;;;;;68.00;54.50;;;;;0.71;53.94;101811.41;5045925;28;8846;-77
2023/12/17 05:47:39;;;;;;;;;65.25;54.00;;;;;0.71;54.01;101808.81;5059431;28;8852;-74
2023/12/17 05:50:10;;;;;;;;;68.00;55.75;;;;;0.70;54.09;101810.53;5066180;28;9456;-74
2023/12/17 05:52:41;;;;;;;;;65.00;55.25;;;;;0.70;54.08;101807.94;5066610;28;8879;-76
2023/12/17 05:55:10;;;;;;;;;68.00;53.50;;;;;0.67;53.98;101805.16;5048377;28;8867;-73
2023/12/17 05:57:41;;;;;;;;;72.25;58.00;;;;;0.62;54.19;101810.09;5045570;28;8838;-75
2023/12/17 06:00:11;;;;;;;;;68.25;53.50;;;;;0.66;54.16;101814.63;5063878;28;8840;-72
2023/12/17 06:02:40;;;;;;;;;67.00;55.00;;;;;0.69;54.09;101806.16;5034552;28;8863;-75
2023/12/17 06:05:10;;;;;;;;;69.75;56.75;;;;;0.58;54.33;101804.69;5065815;28;8863;-78
2023/12/17 06:07:41;;;;;;;;;68.25;54.50;;;;;0.61;54.56;101813.50;5065862;28;8848;-73
2023/12/17 06:10:10;;;;;;;;;62.75;52.50;;;;;0.59;54.61;101817.69;5064554;28;8863;-75
2023/12/17 06:12:39;;;;;;;;;69.75;53.00;;;;;0.65;54.31;101822.31;5028450;28;8871;-74
2023/12/17 06:15:08;;;;;;;;;61.00;51.75;;;;;0.68;54.44;101812.13;5010506;28;8958;-74
2023/12/17 06:17:38;;;;;;;;;70.75;55.00;;;;;0.73;54.12;101807.19;5009175;28;8863;-73
2023/12/17 06:20:08;;;;;;;;;70.00;56.50;;;;;0.66;54.27;101803.41;4991055;28;8874;-74
2023/12/17 06:22:38;;;;;;;;;62.50;51.75;;;;;0.50;54.57;101803.34;5009800;28;8872;-76
2023/12/17 06:25:09;;;;;;;;;67.50;53.00;;;;;0.68;54.43;101804.38;5043185;28;8867;-73
2023/12/17 06:27:38;;;;;;;;;64.25;52.75;;;;;0.70;54.21;101801.88;5026766;28;8863;-75
2023/12/17 06:30:10;;;;;;;;;63.25;51.00;;;;;0.74;53.99;101809.88;4988889;28;8881;-74
2023/12/17 06:32:41;;;;;;;;;70.00;56.75;;;;;0.70;54.23;101807.06;5009682;28;8870;-74
2023/12/17 06:35:10;;;;;;;;;66.75;55.25;;;;;0.79;53.99;101803.28;5047008;28;8866;-75
2023/12/17 06:37:39;;;;;;;;;65.75;51.75;;;;;0.84;53.97;101803.50;4996524;28;8873;-74
2023/12/17 06:40:10;;;;;;;;;57.00;47.25;;;;;0.87;53.96;101806.28;5028811;28;8881;-75
2023/12/17 06:42:39;;;;;;;;;67.25;52.75;;;;;0.91;53.96;101805.63;5045066;28;8916;-74
2023/12/17 06:45:10;;;;;;;;;69.00;53.25;;;;;0.95;53.71;101799.84;5061083;28;8837;-75
2023/12/17 06:47:39;;;;;;;;;67.50;54.25;;;;;0.90;53.38;101787.41;5032759;28;8852;-73
2023/12/17 06:50:10;;;;;;;;;69.00;54.50;;;;;0.99;53.68;101796.66;5048504;28;8860;-74
2023/12/17 06:52:40;;;;;;;;;69.50;57.00;;;;;1.05;53.46;101798.69;5032085;28;8902;-78
2023/12/17 06:55:10;;;;;;;;;66.00;56.25;;;;;1.14;53.28;101803.44;5065230;28;8840;-74
2023/12/17 06:57:46;;;;;;;;;74.25;59.25;;;;;1.10;52.75;101802.38;5048323;28;8867;-75
2023/12/17 07:00:16;;;;;;;;;69.50;57.00;;;;;1.15;52.61;101810.41;5029399;28;8874;-73
2023/12/17 07:02:45;;;;;;;;;63.00;48.00;;;;;1.24;52.97;101822.16;5065186;28;8868;-71
2023/12/17 07:05:14;;;;;;;;;67.75;55.25;;;;;1.34;53.05;101827.84;5064293;28;8855;-74
2023/12/17 07:07:44;;;;;;;;;69.00;58.00;;;;;1.44;52.97;101823.22;5027794;28;8870;-75
2023/12/17 07:10:14;;;;;;;;;68.25;56.25;;;;;1.52;52.25;101817.53;5027824;28;8852;-74
2023/12/17 07:12:44;;;;;;;;;65.00;52.75;;;;;1.56;52.55;101819.47;5010703;28;8846;-76
2023/12/17 07:15:13;;;;;;;;;74.00;60.25;;;;;1.64;52.03;101826.84;5009107;28;8896;-75
2023/12/17 07:17:43;;;;;;;;;74.00;56.50;;;;;1.71;52.04;101830.69;5007956;28;8882;-73
2023/12/17 07:20:13;;;;;;;;;78.75;62.00;;;;;1.85;51.90;101826.19;5008867;28;8976;-77
2023/12/17 07:22:42;;;;;;;;;72.25;56.00;;;;;1.95;51.32;101819.78;5012313;28;8960;-74
2023/12/17 07:25:11;;;;;;;;;74.00;61.00;;;;;2.07;51.54;101824.69;5011599;28;8877;-73
2023/12/17 07:27:42;;;;;;;;;70.25;58.50;;;;;2.17;50.80;101824.34;5028757;28;8881;-76
2023/12/17 07:30:12;;;;;;;;;74.50;59.50;;;;;2.11;51.03;101818.88;4994417;28;8865;-72
2023/12/17 07:32:44;;;;;;;;;77.00;60.25;;;;;2.21;50.87;101827.16;5011705;28;8878;-73
2023/12/17 07:35:14;;;;;;;;;78.00;63.50;;;;;2.33;50.28;101821.69;5010207;28;8858;-75
2023/12/17 07:37:44;;;;;;;;;65.75;52.75;;;;;2.37;50.51;101821.03;5019960;28;8852;-75
2023/12/17 07:40:13;;;;;;;;;74.50;61.25;;;;;2.50;50.39;101822.50;5031727;28;8871;-74
2023/12/17 07:42:43;;;;;;;;;76.50;61.25;;;;;2.52;50.28;101820.88;5029556;28;8875;-76
2023/12/17 07:45:12;;;;;;;;;77.75;61.00;;;;;2.58;49.95;101830.66;5011344;28;8974;-74
2023/12/17 07:47:41;;;;;;;;;46.25;38.25;;;;;2.73;50.11;101827.91;5024297;28;9912;-74
2023/12/17 07:50:15;;;;;;;;;74.00;58.50;;;;;2.79;49.15;101812.66;5019311;28;8889;-74
2023/12/17 07:52:44;;;;;;;;;75.50;60.00;;;;;2.88;49.13;101804.38;5011950;28;8972;-76
2023/12/17 07:55:13;;;;;;;;;72.00;58.75;;;;;2.96;49.11;101798.75;5029632;28;8889;-75
2023/12/17 07:57:43;;;;;;;;;74.50;60.25;;;;;3.04;49.33;101803.41;5028366;28;8860;-75
2023/12/17 08:00:13;;;;;;;;;71.00;57.00;;;;;3.16;48.74;101811.75;5011317;28;8870;-75
2023/12/17 08:02:42;;;;;;;;;75.00;60.25;;;;;3.16;48.65;101801.34;5010822;28;8850;-71
2023/12/17 08:05:11;;;;;;;;;72.75;59.75;;;;;3.19;48.94;101791.13;5009508;28;8873;-74
2023/12/17 08:07:41;;;;;;;;;78.00;60.25;;;;;3.28;48.76;101794.13;5009711;28;8931;-71
2023/12/17 08:10:10;;;;;;;;;77.00;61.50;;;;;3.34;48.21;101794.41;5026155;28;8940;-71
2023/12/17 08:12:40;;;;;;;;;80.33;63.00;;;;;3.43;48.04;101793.97;5010390;28;8882;-74
2023/12/17 08:15:11;;;;;;;;;79.00;64.50;;;;;3.53;48.26;101796.13;5010183;28;8963;-76
2023/12/17 08:17:40;;;;;;;;;79.75;63.00;;;;;3.59;48.68;101804.19;5010296;28;8861;-71
2023/12/17 08:20:10;;;;;;;;;79.75;64.25;;;;;3.66;48.43;101800.16;5042133;28;8858;-75
2023/12/17 08:22:39;;;;;;;;;82.25;65.25;;;;;3.75;47.32;101820.47;4992662;28;8874;-72
2023/12/17 08:25:09;;;;;;;;;92.00;72.67;;;;;3.82;47.46;101811.25;5011929;28;8870;-73
2023/12/17 08:27:39;;;;;;;;;76.25;59.50;;;;;3.85;47.36;101812.25;5011809;28;9344;-71
2023/12/17 08:30:11;;;;;;;;;77.50;60.50;;;;;3.71;47.54;101806.44;4991787;28;8834;-71
2023/12/17 08:32:40;;;;;;;;;77.00;60.75;;;;;3.86;47.50;101816.63;5011019;28;8850;-71
2023/12/17 08:35:11;;;;;;;;;64.75;53.50;;;;;3.80;47.09;101821.56;5021709;28;8912;-70
2023/12/17 08:37:40;;;;;;;;;71.50;57.75;;;;;3.96;47.33;101834.44;5022697;28;9015;-72
2023/12/17 08:40:10;;;;;;;;;64.75;54.00;;;;;3.74;47.52;101839.53;5008536;28;8873;-76
2023/12/17 08:42:39;;;;;;;;;72.50;58.50;;;;;3.99;47.11;101846.66;5022844;28;8881;-73
2023/12/17 08:45:10;;;;;;;;;69.75;55.00;;;;;4.01;46.45;101849.34;5020557;28;8864;-73
2023/12/17 08:47:40;;;;;;;;;68.00;54.00;;;;;4.17;46.88;101852.66;5012084;28;8861;-74
2023/12/17 08:50:10;;;;;;;;;65.00;52.25;;;;;4.28;46.34;101855.75;5001369;28;8863;-74
2023/12/17 08:52:39;;;;;;;;;65.00;53.25;;;;;4.39;46.24;101865.69;5013225;28;8866;-71
2023/12/17 08:55:08;;;;;;;;;65.50;52.75;;;;;4.48;45.71;101851.34;5023230;28;8870;-73
2023/12/17 08:57:37;;;;;;;;;66.00;51.75;;;;;4.61;45.71;101839.72;4983662;28;8862;-71
2023/12/17 09:00:08;;;;;;;;;66.75;55.25;;;;;4.69;45.48;101840.00;5028306;28;8973;-70
2023/12/17 09:02:38;;;;;;;;;73.25;57.00;;;;;4.74;45.47;101843.69;4989581;28;8896;-72
2023/12/17 09:05:08;;;;;;;;;66.00;55.25;;;;;4.28;46.03;101831.38;5007869;28;9600;-75
2023/12/17 09:07:37;;;;;;;;;58.50;48.75;;;;;4.48;45.84;101830.50;5010621;28;8842;-71
2023/12/17 09:10:07;;;;;;;;;61.50;49.75;;;;;4.60;45.84;101827.50;5009532;28;8963;-74
2023/12/17 09:12:36;;;;;;;;;61.50;51.00;;;;;4.50;46.13;101815.81;4959002;28;9589;-71
2023/12/17 09:15:06;;;;;;;;;66.00;51.00;;;;;4.62;45.63;101799.81;5042493;28;8874;-72
2023/12/17 09:17:35;;;;;;;;;56.75;48.00;;;;;4.75;45.36;101788.13;5022499;28;9668;-71
2023/12/17 09:20:07;;;;;;;;;59.00;47.50;;;;;4.86;45.14;101796.38;5017203;28;8866;-73
2023/12/17 09:22:36;;;;;;;;;51.25;44.75;;;;;4.99;44.50;101790.81;5026031;28;8860;-72
2023/12/17 09:25:06;;;;;;;;;54.25;44.25;;;;;5.05;44.41;101787.56;4988818;28;8878;-75
2023/12/17 09:27:35;;;;;;;;;48.25;41.00;;;;;5.05;43.62;101785.81;5029139;28;8863;-73
2023/12/17 09:30:06;;;;;;;;;52.50;42.75;;;;;5.20;43.80;101790.72;5028467;28;8890;-73
2023/12/17 09:32:35;;;;;;;;;48.00;43.00;;;;;5.26;43.52;101785.72;5009766;28;8862;-73
2023/12/17 09:35:10;;;;;;;;;53.25;42.75;;;;;5.33;43.43;101777.34;5017374;28;8893;-72
2023/12/17 09:37:39;;;;;;;;;48.75;40.25;;;;;5.44;43.03;101790.78;5007325;28;8854;-75
2023/12/17 09:40:09;;;;;;;;;54.50;44.75;;;;;5.12;42.86;101794.78;5007601;28;8874;-73
2023/12/17 09:42:41;;;;;;;;;47.40;40.20;;;;;5.25;42.54;101799.63;4989994;28;8918;-73
2023/12/17 09:45:14;;;;;;;;;51.50;44.25;;;;;4.57;43.47;101804.84;5008135;28;8913;-75
2023/12/17 09:47:43;;;;;;;;;52.50;39.75;;;;;4.83;43.56;101798.88;4998569;28;8865;-72
2023/12/17 09:50:14;;;;;;;;;53.75;44.25;;;;;4.45;43.87;101804.34;5008893;28;9004;-71
2023/12/17 09:52:44;;;;;;;;;60.25;50.75;;;;;4.38;44.22;101789.31;5009257;28;8834;-75
2023/12/17 09:55:14;;;;;;;;;61.25;50.50;;;;;3.73;44.69;101776.22;5009044;28;8888;-73
2023/12/17 09:57:44;;;;;;;;;62.50;51.00;;;;;4.17;44.79;101768.50;5008701;28;8862;-75
2023/12/17 10:00:14;;;;;;;;;53.50;44.00;;;;;4.30;44.25;101755.16;5003912;28;8834;-72
2023/12/17 10:02:44;;;;;;;;;53.50;44.75;;;;;4.68;43.99;101749.69;5017063;28;8862;-72
2023/12/17 10:05:15;;;;;;;;;54.50;44.75;;;;;4.93;43.36;101741.06;5009717;28;8870;-72
2023/12/17 10:07:44;;;;;;;;;54.50;46.00;;;;;4.44;43.68;101742.66;5008983;28;8905;-72
2023/12/17 10:10:15;;;;;;;;;54.25;42.75;;;;;4.79;43.40;101742.25;5009210;28;9008;-74
2023/12/17 10:12:44;;;;;;;;;51.25;41.50;;;;;4.64;43.52;101739.94;5013454;28;8859;-72
2023/12/17 10:15:16;;;;;;;;;54.00;40.25;;;;;4.96;42.88;101746.38;5031735;28;8866;-72
2023/12/17 10:17:45;;;;;;;;;38.20;33.40;;;;;5.21;42.03;101739.47;4992795;28;8892;-73
2023/12/17 10:20:19;;;;;;;;;40.40;36.60;;;;;4.13;43.21;101740.53;5023088;28;8863;-70
2023/12/17 10:22:58;;;;;;;;;38.00;36.20;;;;;4.55;44.05;101735.28;5028225;28;8856;-72
2023/12/17 10:25:27;;;;;;;;;44.80;40.00;;;;;4.90;42.42;101727.91;5028279;28;8880;-75
2023/12/17 10:27:59;;;;;;;;;36.20;34.00;;;;;4.36;42.21;101729.34;5018982;28;9064;-73
2023/12/17 10:30:29;;;;;;;;;39.60;36.00;;;;;4.43;42.93;101725.25;5008311;28;8866;-73
2023/12/17 10:33:00;;;;;;;;;37.40;32.80;;;;;3.91;42.72;101718.84;5008808;28;8881;-73
2023/12/17 10:35:31;;;;;;;;;34.00;31.40;;;;;4.51;42.44;101705.63;5017259;28;8889;-73
2023/12/17 10:38:03;;;;;;;;;38.60;36.00;;;;;4.62;42.13;101703.44;5027282;28;8882;-75
2023/12/17 10:40:33;;;;;;;;;44.50;39.50;;;;;4.86;42.05;101695.63;5014453;28;8875;-73
2023/12/17 10:43:05;;;;;;;;;35.40;33.40;;;;;5.19;41.59;101687.28;5026896;28;8859;-73
2023/12/17 10:45:36;;;;;;;;;46.00;39.00;;;;;5.36;41.31;101672.25;5011084;28;8875;-73
2023/12/17 10:48:06;;;;;;;;;36.40;31.60;;;;;5.59;41.32;101683.47;5013471;28;8874;-72
2023/12/17 10:50:37;;;;;;;;;34.60;30.60;;;;;5.79;40.99;101683.25;5012353;28;8850;-74
2023/12/17 10:53:06;;;;;;;;;31.00;31.00;;;;;5.31;41.11;101694.69;5007943;28;8948;-75
2023/12/17 10:55:35;;;;;;;;;41.40;32.40;;;;;5.69;40.40;101702.94;5017089;28;9727;-75
2023/12/17 10:58:08;;;;;;;;;35.60;28.60;;;;;5.83;39.91;101698.16;5021319;28;8947;-72
2023/12/17 11:00:40;;;;;;;;;36.20;31.00;;;;;4.80;41.53;101703.22;5025912;28;8871;-73
2023/12/17 11:03:11;;;;;;;;;34.40;33.40;;;;;5.21;40.98;101696.03;5028431;28;8953;-73
2023/12/17 11:05:54;;;;;;;;;34.80;31.80;;;;;5.66;40.45;101695.91;5030821;28;9618;-75
2023/12/17 11:08:26;;;;;;;;;30.60;29.00;;;;;4.50;41.86;101705.56;5026721;28;8842;-74
2023/12/17 11:10:57;;;;;;;;;33.60;30.20;;;;;3.98;42.96;101692.25;5011834;28;8901;-75
2023/12/17 11:13:26;;;;;;;;;37.20;36.00;;;;;3.47;44.33;101702.28;5009607;28;8839;-74
2023/12/17 11:15:56;;;;;;;;;30.40;28.20;;;;;3.53;43.91;101693.84;4993606;28;8955;-71
2023/12/17 11:18:43;;;;;;;;;45.40;38.00;;;;;3.25;44.81;101690.00;4993472;28;9611;-73
2023/12/17 11:21:15;;;;;;;;;41.00;35.00;;;;;3.10;45.44;101690.22;5011671;28;8869;-74
2023/12/17 11:23:48;;;;;;;;;34.80;30.40;;;;;3.23;45.23;101695.97;5036129;28;8995;-73
2023/12/17 11:26:17;;;;;;;;;29.20;27.40;;;;;3.36;45.18;101686.16;5021923;28;8877;-72
2023/12/17 11:28:48;;;;;;;;;29.40;27.00;;;;;3.87;43.87;101685.72;5024101;28;8844;-72
2023/12/17 11:31:17;;;;;;;;;22.00;18.80;;;;;4.24;43.03;101687.19;5046042;28;8883;-73
2023/12/17 11:33:46;;;;;;;;;29.40;28.40;;;;;4.10;42.66;101678.84;5020431;28;8897;-74
2023/12/17 11:36:18;;;;;;;;;24.60;23.80;;;;;3.46;44.36;101679.69;5012108;28;8870;-74